Mekoryuk, Alaska
Current Conditions -  °F | °C
As of 1:56 PM on Saturday 20 Dec 2014 (Local Time) from PAMY Reporting Station
Few Clouds Few Clouds  
Wind Chill: -19°   Ceiling: Unl
Heat Index: -9°   Visibility: 10mi
Dew Point: -14°   Wind: 22mph
Humidity: 68%   Direction: 50°NE
Pressure: 29.2"   Gusts: NA
Location:  60.39°N, 166.19°W
Report Text: PAMY 202256Z AUTO 05019KT 10SM FEW013 M09/M14 A2920 RMK AO1
Loading
Personal Weather Stations






























Interactive Weather Map New forecast layout! Learn more

10-Day Weather Forecast

Advertisements
Track Severe Weather on mobile